sensor_id;sensor_type;location;lat;lon;timestamp;P1;durP1;ratioP1;P2;durP2;ratioP2
19406;SDS011;9839;53.364;-1.204;2023-03-01T00:01:53;10.37;;;4.13;;
19406;SDS011;9839;53.364;-1.204;2023-03-01T00:04:19;13.33;;;3.93;;
19406;SDS011;9839;53.364;-1.204;2023-03-01T00:06:44;14.50;;;4.63;;
19406;SDS011;9839;53.364;-1.204;2023-03-01T00:09:14;16.37;;;5.33;;
19406;SDS011;9839;53.364;-1.204;2023-03-01T00:11:39;83.00;;;46.27;;
19406;SDS011;9839;53.364;-1.204;2023-03-01T00:14:05;52.30;;;29.70;;
19406;SDS011;9839;53.364;-1.204;2023-03-01T00:16:34;28.00;;;11.67;;
19406;SDS011;9839;53.364;-1.204;2023-03-01T00:19:03;28.90;;;9.23;;
19406;SDS011;9839;53.364;-1.204;2023-03-01T00:21:29;15.63;;;8.00;;
19406;SDS011;9839;53.364;-1.204;2023-03-01T00:23:55;19.97;;;8.47;;
19406;SDS011;9839;53.364;-1.204;2023-03-01T00:26:21;85.23;;;37.40;;
19406;SDS011;9839;53.364;-1.204;2023-03-01T00:28:47;116.07;;;60.17;;
19406;SDS011;9839;53.364;-1.204;2023-03-01T00:31:14;70.50;;;35.83;;
19406;SDS011;9839;53.364;-1.204;2023-03-01T00:33:41;49.93;;;21.83;;
19406;SDS011;9839;53.364;-1.204;2023-03-01T00:36:07;66.50;;;34.77;;
19406;SDS011;9839;53.364;-1.204;2023-03-01T00:38:40;106.03;;;53.23;;
19406;SDS011;9839;53.364;-1.204;2023-03-01T00:41:10;25.40;;;10.30;;
19406;SDS011;9839;53.364;-1.204;2023-03-01T00:43:36;25.83;;;11.97;;
19406;SDS011;9839;53.364;-1.204;2023-03-01T00:46:05;16.83;;;6.27;;
19406;SDS011;9839;53.364;-1.204;2023-03-01T00:48:33;16.30;;;6.47;;
19406;SDS011;9839;53.364;-1.204;2023-03-01T00:51:05;21.33;;;6.80;;
19406;SDS011;9839;53.364;-1.204;2023-03-01T00:53:30;16.17;;;5.77;;
19406;SDS011;9839;53.364;-1.204;2023-03-01T00:55:57;18.67;;;5.20;;
19406;SDS011;9839;53.364;-1.204;2023-03-01T00:58:23;16.77;;;4.40;;
19406;SDS011;9839;53.364;-1.204;2023-03-01T01:00:49;11.10;;;3.80;;
19406;SDS011;9839;53.364;-1.204;2023-03-01T01:03:14;21.17;;;4.27;;
19406;SDS011;9839;53.364;-1.204;2023-03-01T01:05:40;8.90;;;3.93;;
19406;SDS011;9839;53.364;-1.204;2023-03-01T01:08:05;8.50;;;4.00;;
19406;SDS011;9839;53.364;-1.204;2023-03-01T01:10:32;14.33;;;3.77;;
19406;SDS011;9839;53.364;-1.204;2023-03-01T01:12:59;9.87;;;4.07;;
19406;SDS011;9839;53.364;-1.204;2023-03-01T01:15:24;8.17;;;3.77;;
19406;SDS011;9839;53.364;-1.204;2023-03-01T01:17:50;13.30;;;3.67;;
19406;SDS011;9839;53.364;-1.204;2023-03-01T01:20:15;6.93;;;3.10;;
19406;SDS011;9839;53.364;-1.204;2023-03-01T01:22:41;8.57;;;3.17;;
19406;SDS011;9839;53.364;-1.204;2023-03-01T01:25:06;8.60;;;2.83;;
19406;SDS011;9839;53.364;-1.204;2023-03-01T01:27:32;11.23;;;3.53;;
19406;SDS011;9839;53.364;-1.204;2023-03-01T01:29:57;11.03;;;3.87;;
19406;SDS011;9839;53.364;-1.204;2023-03-01T01:32:23;11.93;;;4.33;;
19406;SDS011;9839;53.364;-1.204;2023-03-01T01:34:48;9.60;;;4.60;;
19406;SDS011;9839;53.364;-1.204;2023-03-01T01:37:13;10.50;;;4.93;;
19406;SDS011;9839;53.364;-1.204;2023-03-01T01:39:39;10.60;;;4.53;;
19406;SDS011;9839;53.364;-1.204;2023-03-01T01:42:04;8.77;;;3.97;;
19406;SDS011;9839;53.364;-1.204;2023-03-01T01:44:30;8.23;;;3.73;;
19406;SDS011;9839;53.364;-1.204;2023-03-01T01:52:39;7.27;;;2.50;;
19406;SDS011;9839;53.364;-1.204;2023-03-01T01:55:03;8.43;;;3.03;;
19406;SDS011;9839;53.364;-1.204;2023-03-01T01:57:41;6.67;;;2.90;;
19406;SDS011;9839;53.364;-1.204;2023-03-01T02:02:37;12.90;;;4.10;;
19406;SDS011;9839;53.364;-1.204;2023-03-01T02:05:14;6.83;;;3.70;;
19406;SDS011;9839;53.364;-1.204;2023-03-01T02:07:46;5.40;;;3.30;;
19406;SDS011;9839;53.364;-1.204;2023-03-01T02:10:12;5.30;;;2.83;;
19406;SDS011;9839;53.364;-1.204;2023-03-01T02:12:38;7.20;;;3.40;;
19406;SDS011;9839;53.364;-1.204;2023-03-01T02:15:04;5.20;;;2.87;;
19406;SDS011;9839;53.364;-1.204;2023-03-01T02:17:30;7.70;;;3.33;;
19406;SDS011;9839;53.364;-1.204;2023-03-01T02:22:39;5.57;;;3.40;;
19406;SDS011;9839;53.364;-1.204;2023-03-01T02:30:27;6.47;;;3.67;;
19406;SDS011;9839;53.364;-1.204;2023-03-01T02:32:54;8.67;;;2.77;;
19406;SDS011;9839;53.364;-1.204;2023-03-01T02:35:27;10.63;;;3.80;;
19406;SDS011;9839;53.364;-1.204;2023-03-01T02:37:53;11.53;;;4.00;;
19406;SDS011;9839;53.364;-1.204;2023-03-01T02:40:22;12.57;;;4.03;;
19406;SDS011;9839;53.364;-1.204;2023-03-01T02:42:54;8.40;;;3.80;;
19406;SDS011;9839;53.364;-1.204;2023-03-01T02:45:21;9.53;;;3.60;;
19406;SDS011;9839;53.364;-1.204;2023-03-01T02:47:48;7.57;;;3.77;;
19406;SDS011;9839;53.364;-1.204;2023-03-01T02:52:58;7.53;;;3.63;;
19406;SDS011;9839;53.364;-1.204;2023-03-01T02:55:27;8.77;;;4.33;;
19406;SDS011;9839;53.364;-1.204;2023-03-01T02:57:52;8.23;;;3.77;;
19406;SDS011;9839;53.364;-1.204;2023-03-01T03:00:19;11.43;;;4.40;;
19406;SDS011;9839;53.364;-1.204;2023-03-01T03:02:47;9.10;;;4.07;;
19406;SDS011;9839;53.364;-1.204;2023-03-01T03:05:20;12.67;;;5.07;;
19406;SDS011;9839;53.364;-1.204;2023-03-01T03:07:47;10.77;;;4.47;;
19406;SDS011;9839;53.364;-1.204;2023-03-01T03:10:15;11.73;;;5.07;;
19406;SDS011;9839;53.364;-1.204;2023-03-01T03:12:44;12.27;;;5.37;;
19406;SDS011;9839;53.364;-1.204;2023-03-01T03:15:10;12.00;;;5.73;;
19406;SDS011;9839;53.364;-1.204;2023-03-01T03:17:37;12.67;;;6.97;;
19406;SDS011;9839;53.364;-1.204;2023-03-01T03:20:05;18.40;;;7.07;;
19406;SDS011;9839;53.364;-1.204;2023-03-01T03:22:31;20.50;;;7.43;;
19406;SDS011;9839;53.364;-1.204;2023-03-01T03:24:59;18.63;;;7.63;;
19406;SDS011;9839;53.364;-1.204;2023-03-01T03:27:24;19.90;;;7.47;;
19406;SDS011;9839;53.364;-1.204;2023-03-01T03:29:50;14.43;;;6.43;;
19406;SDS011;9839;53.364;-1.204;2023-03-01T03:32:15;14.67;;;5.57;;
19406;SDS011;9839;53.364;-1.204;2023-03-01T03:34:40;13.33;;;4.93;;
19406;SDS011;9839;53.364;-1.204;2023-03-01T03:37:06;16.47;;;5.10;;
19406;SDS011;9839;53.364;-1.204;2023-03-01T03:39:51;8.07;;;3.70;;
19406;SDS011;9839;53.364;-1.204;2023-03-01T03:42:20;8.60;;;2.90;;
19406;SDS011;9839;53.364;-1.204;2023-03-01T03:44:47;12.17;;;3.07;;
19406;SDS011;9839;53.364;-1.204;2023-03-01T03:47:12;5.53;;;2.53;;
19406;SDS011;9839;53.364;-1.204;2023-03-01T03:49:38;9.13;;;2.57;;
19406;SDS011;9839;53.364;-1.204;2023-03-01T03:52:03;5.00;;;2.50;;
19406;SDS011;9839;53.364;-1.204;2023-03-01T03:54:29;7.67;;;2.63;;
19406;SDS011;9839;53.364;-1.204;2023-03-01T03:56:54;9.97;;;2.57;;
19406;SDS011;9839;53.364;-1.204;2023-03-01T03:59:20;5.57;;;3.00;;
19406;SDS011;9839;53.364;-1.204;2023-03-01T04:01:45;6.13;;;2.90;;
19406;SDS011;9839;53.364;-1.204;2023-03-01T04:04:10;7.87;;;2.67;;
19406;SDS011;9839;53.364;-1.204;2023-03-01T04:06:36;4.90;;;2.77;;
19406;SDS011;9839;53.364;-1.204;2023-03-01T04:09:01;7.83;;;3.00;;
19406;SDS011;9839;53.364;-1.204;2023-03-01T04:11:27;11.27;;;3.57;;
19406;SDS011;9839;53.364;-1.204;2023-03-01T04:13:55;10.23;;;4.03;;
19406;SDS011;9839;53.364;-1.204;2023-03-01T04:16:22;6.83;;;3.93;;
19406;SDS011;9839;53.364;-1.204;2023-03-01T04:18:48;9.80;;;3.93;;
19406;SDS011;9839;53.364;-1.204;2023-03-01T04:21:13;12.07;;;4.40;;
19406;SDS011;9839;53.364;-1.204;2023-03-01T04:23:39;13.67;;;3.93;;
19406;SDS011;9839;53.364;-1.204;2023-03-01T04:26:06;17.60;;;3.83;;
19406;SDS011;9839;53.364;-1.204;2023-03-01T04:28:35;7.20;;;2.90;;
19406;SDS011;9839;53.364;-1.204;2023-03-01T04:31:03;9.90;;;2.90;;
19406;SDS011;9839;53.364;-1.204;2023-03-01T04:33:38;10.23;;;3.33;;
19406;SDS011;9839;53.364;-1.204;2023-03-01T04:36:07;8.23;;;3.33;;
19406;SDS011;9839;53.364;-1.204;2023-03-01T04:38:34;12.50;;;3.77;;
19406;SDS011;9839;53.364;-1.204;2023-03-01T04:41:01;8.73;;;3.57;;
19406;SDS011;9839;53.364;-1.204;2023-03-01T04:43:28;10.93;;;3.93;;
19406;SDS011;9839;53.364;-1.204;2023-03-01T04:45:53;8.20;;;3.17;;
19406;SDS011;9839;53.364;-1.204;2023-03-01T04:48:19;9.10;;;3.10;;
19406;SDS011;9839;53.364;-1.204;2023-03-01T04:50:44;8.53;;;3.37;;
19406;SDS011;9839;53.364;-1.204;2023-03-01T04:53:10;6.37;;;3.20;;
19406;SDS011;9839;53.364;-1.204;2023-03-01T04:55:35;6.63;;;2.67;;
19406;SDS011;9839;53.364;-1.204;2023-03-01T04:58:00;8.87;;;3.00;;
19406;SDS011;9839;53.364;-1.204;2023-03-01T05:00:26;7.10;;;2.67;;
19406;SDS011;9839;53.364;-1.204;2023-03-01T05:02:59;4.13;;;2.77;;
19406;SDS011;9839;53.364;-1.204;2023-03-01T05:05:33;5.97;;;2.80;;
19406;SDS011;9839;53.364;-1.204;2023-03-01T05:08:00;5.10;;;2.77;;
19406;SDS011;9839;53.364;-1.204;2023-03-01T05:10:28;5.00;;;3.00;;
19406;SDS011;9839;53.364;-1.204;2023-03-01T05:12:54;6.80;;;3.17;;
19406;SDS011;9839;53.364;-1.204;2023-03-01T05:15:22;6.83;;;3.73;;
19406;SDS011;9839;53.364;-1.204;2023-03-01T05:17:50;9.20;;;4.17;;
19406;SDS011;9839;53.364;-1.204;2023-03-01T05:20:16;7.13;;;4.10;;
19406;SDS011;9839;53.364;-1.204;2023-03-01T05:22:42;11.80;;;4.17;;
19406;SDS011;9839;53.364;-1.204;2023-03-01T05:25:08;6.53;;;3.20;;
19406;SDS011;9839;53.364;-1.204;2023-03-01T05:27:33;9.60;;;4.67;;
19406;SDS011;9839;53.364;-1.204;2023-03-01T05:30:00;8.20;;;3.10;;
19406;SDS011;9839;53.364;-1.204;2023-03-01T05:32:38;6.07;;;3.63;;
19406;SDS011;9839;53.364;-1.204;2023-03-01T05:35:08;10.40;;;3.70;;
19406;SDS011;9839;53.364;-1.204;2023-03-01T05:37:38;7.00;;;3.03;;
19406;SDS011;9839;53.364;-1.204;2023-03-01T05:40:11;8.37;;;3.10;;
19406;SDS011;9839;53.364;-1.204;2023-03-01T05:42:43;9.23;;;3.30;;
19406;SDS011;9839;53.364;-1.204;2023-03-01T05:45:09;7.53;;;3.13;;
19406;SDS011;9839;53.364;-1.204;2023-03-01T05:47:35;5.57;;;2.87;;
19406;SDS011;9839;53.364;-1.204;2023-03-01T05:50:01;8.57;;;2.63;;
19406;SDS011;9839;53.364;-1.204;2023-03-01T05:52:27;5.20;;;2.77;;
19406;SDS011;9839;53.364;-1.204;2023-03-01T05:54:52;6.50;;;2.33;;
19406;SDS011;9839;53.364;-1.204;2023-03-01T05:57:18;10.40;;;2.60;;
19406;SDS011;9839;53.364;-1.204;2023-03-01T05:59:43;5.90;;;2.20;;
19406;SDS011;9839;53.364;-1.204;2023-03-01T06:02:09;5.77;;;2.37;;
19406;SDS011;9839;53.364;-1.204;2023-03-01T06:04:34;4.03;;;2.30;;
19406;SDS011;9839;53.364;-1.204;2023-03-01T06:06:59;4.27;;;1.60;;
19406;SDS011;9839;53.364;-1.204;2023-03-01T06:09:25;6.07;;;1.60;;
19406;SDS011;9839;53.364;-1.204;2023-03-01T06:11:51;3.30;;;1.50;;
19406;SDS011;9839;53.364;-1.204;2023-03-01T06:14:16;7.03;;;1.83;;
19406;SDS011;9839;53.364;-1.204;2023-03-01T06:16:42;2.30;;;1.37;;
19406;SDS011;9839;53.364;-1.204;2023-03-01T06:19:07;5.10;;;1.73;;
19406;SDS011;9839;53.364;-1.204;2023-03-01T06:21:32;6.83;;;1.80;;
19406;SDS011;9839;53.364;-1.204;2023-03-01T06:23:58;6.10;;;1.50;;
19406;SDS011;9839;53.364;-1.204;2023-03-01T06:26:23;4.50;;;1.90;;
19406;SDS011;9839;53.364;-1.204;2023-03-01T06:28:49;4.87;;;1.93;;
19406;SDS011;9839;53.364;-1.204;2023-03-01T06:31:14;5.80;;;2.20;;
19406;SDS011;9839;53.364;-1.204;2023-03-01T06:33:39;5.50;;;2.30;;
19406;SDS011;9839;53.364;-1.204;2023-03-01T06:36:05;7.00;;;2.90;;
19406;SDS011;9839;53.364;-1.204;2023-03-01T06:38:31;10.10;;;3.23;;
19406;SDS011;9839;53.364;-1.204;2023-03-01T06:40:56;9.33;;;3.60;;
19406;SDS011;9839;53.364;-1.204;2023-03-01T06:43:22;7.97;;;3.40;;
19406;SDS011;9839;53.364;-1.204;2023-03-01T06:45:48;7.00;;;3.80;;
19406;SDS011;9839;53.364;-1.204;2023-03-01T06:48:14;11.50;;;4.03;;
19406;SDS011;9839;53.364;-1.204;2023-03-01T06:50:39;8.67;;;4.37;;
19406;SDS011;9839;53.364;-1.204;2023-03-01T06:53:05;9.93;;;3.53;;
19406;SDS011;9839;53.364;-1.204;2023-03-01T06:55:30;9.63;;;4.40;;
19406;SDS011;9839;53.364;-1.204;2023-03-01T06:57:59;17.80;;;4.73;;
19406;SDS011;9839;53.364;-1.204;2023-03-01T07:00:26;6.63;;;4.00;;
19406;SDS011;9839;53.364;-1.204;2023-03-01T07:02:52;10.77;;;3.80;;
19406;SDS011;9839;53.364;-1.204;2023-03-01T07:05:18;9.63;;;2.83;;
19406;SDS011;9839;53.364;-1.204;2023-03-01T07:07:43;10.67;;;2.90;;
19406;SDS011;9839;53.364;-1.204;2023-03-01T07:10:09;6.87;;;2.53;;
19406;SDS011;9839;53.364;-1.204;2023-03-01T07:12:35;7.60;;;2.70;;
19406;SDS011;9839;53.364;-1.204;2023-03-01T07:15:01;9.00;;;2.40;;
19406;SDS011;9839;53.364;-1.204;2023-03-01T07:17:26;5.40;;;2.37;;
19406;SDS011;9839;53.364;-1.204;2023-03-01T07:19:51;10.00;;;2.60;;
19406;SDS011;9839;53.364;-1.204;2023-03-01T07:22:17;10.43;;;2.47;;
19406;SDS011;9839;53.364;-1.204;2023-03-01T07:24:42;6.47;;;2.37;;
19406;SDS011;9839;53.364;-1.204;2023-03-01T07:27:08;6.50;;;2.73;;
19406;SDS011;9839;53.364;-1.204;2023-03-01T07:29:33;8.87;;;2.73;;
19406;SDS011;9839;53.364;-1.204;2023-03-01T07:32:01;7.27;;;2.27;;
19406;SDS011;9839;53.364;-1.204;2023-03-01T07:34:27;3.90;;;2.03;;
19406;SDS011;9839;53.364;-1.204;2023-03-01T07:36:52;10.57;;;2.13;;
19406;SDS011;9839;53.364;-1.204;2023-03-01T07:39:18;6.83;;;2.13;;
19406;SDS011;9839;53.364;-1.204;2023-03-01T07:41:43;10.33;;;1.97;;
19406;SDS011;9839;53.364;-1.204;2023-03-01T07:44:09;4.83;;;1.63;;
19406;SDS011;9839;53.364;-1.204;2023-03-01T07:46:34;6.77;;;2.17;;
19406;SDS011;9839;53.364;-1.204;2023-03-01T07:48:59;3.70;;;1.57;;
19406;SDS011;9839;53.364;-1.204;2023-03-01T07:51:25;5.73;;;1.83;;
19406;SDS011;9839;53.364;-1.204;2023-03-01T07:53:50;5.07;;;1.50;;
19406;SDS011;9839;53.364;-1.204;2023-03-01T07:56:16;4.40;;;1.80;;
19406;SDS011;9839;53.364;-1.204;2023-03-01T07:58:43;4.97;;;1.77;;
19406;SDS011;9839;53.364;-1.204;2023-03-01T08:01:10;6.43;;;1.50;;
19406;SDS011;9839;53.364;-1.204;2023-03-01T08:03:37;8.53;;;1.67;;
19406;SDS011;9839;53.364;-1.204;2023-03-01T08:06:04;5.63;;;1.20;;
19406;SDS011;9839;53.364;-1.204;2023-03-01T08:08:31;6.57;;;1.50;;
19406;SDS011;9839;53.364;-1.204;2023-03-01T08:10:58;3.37;;;1.23;;
19406;SDS011;9839;53.364;-1.204;2023-03-01T08:13:25;8.53;;;1.40;;
19406;SDS011;9839;53.364;-1.204;2023-03-01T08:15:50;6.23;;;1.47;;
19406;SDS011;9839;53.364;-1.204;2023-03-01T08:18:17;8.03;;;1.47;;
19406;SDS011;9839;53.364;-1.204;2023-03-01T08:20:43;5.90;;;0.97;;
19406;SDS011;9839;53.364;-1.204;2023-03-01T08:23:08;7.27;;;1.30;;
19406;SDS011;9839;53.364;-1.204;2023-03-01T08:25:34;5.43;;;1.43;;
19406;SDS011;9839;53.364;-1.204;2023-03-01T08:27:59;6.30;;;2.00;;
19406;SDS011;9839;53.364;-1.204;2023-03-01T08:30:24;8.07;;;2.10;;
19406;SDS011;9839;53.364;-1.204;2023-03-01T08:32:50;7.33;;;2.10;;
19406;SDS011;9839;53.364;-1.204;2023-03-01T08:35:16;5.60;;;2.17;;
19406;SDS011;9839;53.364;-1.204;2023-03-01T08:37:42;4.83;;;1.90;;
19406;SDS011;9839;53.364;-1.204;2023-03-01T08:40:07;9.37;;;2.20;;
19406;SDS011;9839;53.364;-1.204;2023-03-01T08:42:35;6.47;;;2.03;;
19406;SDS011;9839;53.364;-1.204;2023-03-01T08:45:00;12.13;;;3.57;;
19406;SDS011;9839;53.364;-1.204;2023-03-01T08:47:26;8.17;;;2.20;;
19406;SDS011;9839;53.364;-1.204;2023-03-01T08:49:51;8.97;;;2.10;;
19406;SDS011;9839;53.364;-1.204;2023-03-01T08:52:17;4.13;;;1.63;;
19406;SDS011;9839;53.364;-1.204;2023-03-01T08:54:44;5.70;;;1.60;;
19406;SDS011;9839;53.364;-1.204;2023-03-01T08:57:09;12.40;;;1.70;;
19406;SDS011;9839;53.364;-1.204;2023-03-01T08:59:35;8.83;;;1.60;;
19406;SDS011;9839;53.364;-1.204;2023-03-01T09:02:02;4.43;;;1.60;;
19406;SDS011;9839;53.364;-1.204;2023-03-01T09:04:29;8.57;;;1.10;;
19406;SDS011;9839;53.364;-1.204;2023-03-01T09:06:54;3.93;;;1.47;;
19406;SDS011;9839;53.364;-1.204;2023-03-01T09:09:20;7.73;;;1.70;;
19406;SDS011;9839;53.364;-1.204;2023-03-01T09:11:45;5.93;;;1.87;;
19406;SDS011;9839;53.364;-1.204;2023-03-01T09:14:11;4.13;;;1.10;;
19406;SDS011;9839;53.364;-1.204;2023-03-01T09:16:37;5.63;;;1.30;;
19406;SDS011;9839;53.364;-1.204;2023-03-01T09:19:03;6.90;;;1.10;;
19406;SDS011;9839;53.364;-1.204;2023-03-01T09:21:29;3.43;;;0.97;;
19406;SDS011;9839;53.364;-1.204;2023-03-01T09:23:55;7.03;;;1.57;;
19406;SDS011;9839;53.364;-1.204;2023-03-01T09:26:22;6.20;;;1.33;;
19406;SDS011;9839;53.364;-1.204;2023-03-01T09:28:48;3.90;;;1.77;;
19406;SDS011;9839;53.364;-1.204;2023-03-01T09:31:15;5.83;;;1.50;;
19406;SDS011;9839;53.364;-1.204;2023-03-01T09:33:42;3.40;;;1.40;;
19406;SDS011;9839;53.364;-1.204;2023-03-01T09:36:12;5.70;;;1.67;;
19406;SDS011;9839;53.364;-1.204;2023-03-01T09:38:38;8.23;;;1.33;;
19406;SDS011;9839;53.364;-1.204;2023-03-01T09:41:09;9.70;;;1.80;;
19406;SDS011;9839;53.364;-1.204;2023-03-01T09:46:59;4.77;;;1.20;;
19406;SDS011;9839;53.364;-1.204;2023-03-01T09:49:26;7.80;;;1.27;;
19406;SDS011;9839;53.364;-1.204;2023-03-01T09:51:56;2.63;;;1.10;;
19406;SDS011;9839;53.364;-1.204;2023-03-01T09:54:22;5.53;;;1.40;;
19406;SDS011;9839;53.364;-1.204;2023-03-01T09:56:59;5.47;;;1.50;;
19406;SDS011;9839;53.364;-1.204;2023-03-01T09:59:38;6.10;;;1.43;;
19406;SDS011;9839;53.364;-1.204;2023-03-01T10:02:21;3.17;;;1.00;;
19406;SDS011;9839;53.364;-1.204;2023-03-01T10:04:54;4.13;;;1.30;;
19406;SDS011;9839;53.364;-1.204;2023-03-01T10:07:27;7.17;;;2.07;;
19406;SDS011;9839;53.364;-1.204;2023-03-01T10:09:56;8.50;;;1.50;;
19406;SDS011;9839;53.364;-1.204;2023-03-01T10:12:24;3.47;;;1.40;;
19406;SDS011;9839;53.364;-1.204;2023-03-01T10:22:49;8.77;;;2.40;;
19406;SDS011;9839;53.364;-1.204;2023-03-01T10:26:06;6.77;;;1.90;;
19406;SDS011;9839;53.364;-1.204;2023-03-01T10:30:45;5.80;;;1.73;;
19406;SDS011;9839;53.364;-1.204;2023-03-01T10:35:45;14.90;;;1.80;;
19406;SDS011;9839;53.364;-1.204;2023-03-01T10:38:14;5.30;;;1.53;;
19406;SDS011;9839;53.364;-1.204;2023-03-01T10:41:00;4.07;;;1.43;;
19406;SDS011;9839;53.364;-1.204;2023-03-01T10:43:46;7.03;;;1.70;;
19406;SDS011;9839;53.364;-1.204;2023-03-01T10:46:23;8.93;;;2.53;;
19406;SDS011;9839;53.364;-1.204;2023-03-01T10:51:44;5.37;;;2.00;;
19406;SDS011;9839;53.364;-1.204;2023-03-01T10:56:50;4.23;;;1.90;;
19406;SDS011;9839;53.364;-1.204;2023-03-01T10:59:35;4.20;;;1.50;;
19406;SDS011;9839;53.364;-1.204;2023-03-01T11:07:46;7.70;;;1.40;;
19406;SDS011;9839;53.364;-1.204;2023-03-01T11:10:28;7.93;;;1.50;;
19406;SDS011;9839;53.364;-1.204;2023-03-01T11:13:14;5.00;;;1.20;;
19406;SDS011;9839;53.364;-1.204;2023-03-01T11:15:41;6.00;;;0.83;;
19406;SDS011;9839;53.364;-1.204;2023-03-01T11:18:20;3.73;;;0.90;;
19406;SDS011;9839;53.364;-1.204;2023-03-01T11:20:46;9.07;;;1.60;;
19406;SDS011;9839;53.364;-1.204;2023-03-01T11:23:13;8.07;;;1.20;;
19406;SDS011;9839;53.364;-1.204;2023-03-01T11:25:40;3.83;;;0.90;;
19406;SDS011;9839;53.364;-1.204;2023-03-01T11:28:27;9.70;;;1.47;;
19406;SDS011;9839;53.364;-1.204;2023-03-01T11:30:55;3.10;;;1.70;;
19406;SDS011;9839;53.364;-1.204;2023-03-01T11:34:11;10.10;;;1.97;;
19406;SDS011;9839;53.364;-1.204;2023-03-01T11:38:48;4.97;;;2.17;;
19406;SDS011;9839;53.364;-1.204;2023-03-01T11:41:17;6.27;;;2.30;;
19406;SDS011;9839;53.364;-1.204;2023-03-01T11:46:31;3.47;;;1.23;;
19406;SDS011;9839;53.364;-1.204;2023-03-01T11:54:30;5.63;;;1.10;;
19406;SDS011;9839;53.364;-1.204;2023-03-01T11:59:45;5.53;;;1.17;;
19406;SDS011;9839;53.364;-1.204;2023-03-01T12:08:04;7.87;;;1.30;;
19406;SDS011;9839;53.364;-1.204;2023-03-01T12:15:46;6.33;;;1.13;;
19406;SDS011;9839;53.364;-1.204;2023-03-01T12:18:34;5.10;;;1.20;;
19406;SDS011;9839;53.364;-1.204;2023-03-01T12:21:18;10.37;;;1.70;;
19406;SDS011;9839;53.364;-1.204;2023-03-01T12:26:28;6.73;;;1.10;;
19406;SDS011;9839;53.364;-1.204;2023-03-01T12:39:39;8.30;;;1.47;;
19406;SDS011;9839;53.364;-1.204;2023-03-01T12:44:58;5.83;;;1.40;;
19406;SDS011;9839;53.364;-1.204;2023-03-01T12:47:35;4.83;;;1.20;;
19406;SDS011;9839;53.364;-1.204;2023-03-01T12:50:26;7.83;;;1.17;;
19406;SDS011;9839;53.364;-1.204;2023-03-01T12:53:26;4.80;;;1.10;;
19406;SDS011;9839;53.364;-1.204;2023-03-01T12:56:01;4.60;;;1.40;;
19406;SDS011;9839;53.364;-1.204;2023-03-01T12:58:32;9.23;;;1.30;;
19406;SDS011;9839;53.364;-1.204;2023-03-01T13:01:14;3.57;;;0.90;;
19406;SDS011;9839;53.364;-1.204;2023-03-01T13:20:19;4.87;;;1.17;;
19406;SDS011;9839;53.364;-1.204;2023-03-01T13:22:46;5.43;;;1.50;;
19406;SDS011;9839;53.364;-1.204;2023-03-01T13:25:16;4.77;;;1.03;;
19406;SDS011;9839;53.364;-1.204;2023-03-01T13:27:43;5.70;;;1.00;;
19406;SDS011;9839;53.364;-1.204;2023-03-01T13:33:33;12.20;;;1.50;;
19406;SDS011;9839;53.364;-1.204;2023-03-01T13:36:05;4.93;;;1.00;;
19406;SDS011;9839;53.364;-1.204;2023-03-01T13:41:13;3.57;;;0.93;;
19406;SDS011;9839;53.364;-1.204;2023-03-01T13:43:43;6.33;;;1.00;;
19406;SDS011;9839;53.364;-1.204;2023-03-01T13:46:22;6.10;;;1.37;;
19406;SDS011;9839;53.364;-1.204;2023-03-01T13:48:52;2.93;;;0.80;;
19406;SDS011;9839;53.364;-1.204;2023-03-01T13:51:23;2.97;;;0.83;;
19406;SDS011;9839;53.364;-1.204;2023-03-01T13:53:51;11.97;;;1.43;;
19406;SDS011;9839;53.364;-1.204;2023-03-01T13:56:27;6.40;;;1.20;;
19406;SDS011;9839;53.364;-1.204;2023-03-01T13:59:01;9.53;;;1.90;;
19406;SDS011;9839;53.364;-1.204;2023-03-01T14:01:32;3.77;;;1.00;;
19406;SDS011;9839;53.364;-1.204;2023-03-01T14:04:00;2.57;;;0.80;;
19406;SDS011;9839;53.364;-1.204;2023-03-01T14:06:27;8.93;;;1.50;;
19406;SDS011;9839;53.364;-1.204;2023-03-01T14:09:03;2.77;;;0.80;;
19406;SDS011;9839;53.364;-1.204;2023-03-01T14:11:54;4.27;;;0.70;;
19406;SDS011;9839;53.364;-1.204;2023-03-01T14:20:20;7.60;;;1.37;;
19406;SDS011;9839;53.364;-1.204;2023-03-01T14:22:47;8.10;;;1.87;;
19406;SDS011;9839;53.364;-1.204;2023-03-01T14:25:21;6.27;;;1.50;;
19406;SDS011;9839;53.364;-1.204;2023-03-01T14:27:57;3.87;;;1.20;;
19406;SDS011;9839;53.364;-1.204;2023-03-01T14:30:30;5.13;;;1.33;;
19406;SDS011;9839;53.364;-1.204;2023-03-01T14:32:59;7.87;;;0.83;;
19406;SDS011;9839;53.364;-1.204;2023-03-01T14:35:30;4.30;;;1.20;;
19406;SDS011;9839;53.364;-1.204;2023-03-01T14:37:57;6.53;;;1.30;;
19406;SDS011;9839;53.364;-1.204;2023-03-01T14:42:49;5.50;;;2.30;;
19406;SDS011;9839;53.364;-1.204;2023-03-01T14:45:15;7.33;;;1.23;;
19406;SDS011;9839;53.364;-1.204;2023-03-01T14:47:43;4.77;;;1.67;;
19406;SDS011;9839;53.364;-1.204;2023-03-01T14:50:23;7.23;;;2.13;;
19406;SDS011;9839;53.364;-1.204;2023-03-01T14:52:59;7.33;;;1.77;;
19406;SDS011;9839;53.364;-1.204;2023-03-01T14:56:01;8.10;;;2.07;;
19406;SDS011;9839;53.364;-1.204;2023-03-01T14:58:21;8.20;;;1.57;;
19406;SDS011;9839;53.364;-1.204;2023-03-01T15:00:55;5.17;;;1.40;;
19406;SDS011;9839;53.364;-1.204;2023-03-01T15:06:02;11.03;;;1.63;;
19406;SDS011;9839;53.364;-1.204;2023-03-01T15:08:28;5.87;;;1.40;;
19406;SDS011;9839;53.364;-1.204;2023-03-01T15:13:42;6.23;;;1.40;;
19406;SDS011;9839;53.364;-1.204;2023-03-01T15:16:15;8.37;;;2.27;;
19406;SDS011;9839;53.364;-1.204;2023-03-01T15:18:45;13.37;;;2.20;;
19406;SDS011;9839;53.364;-1.204;2023-03-01T15:21:19;4.10;;;1.20;;
19406;SDS011;9839;53.364;-1.204;2023-03-01T15:23:52;7.77;;;2.33;;
19406;SDS011;9839;53.364;-1.204;2023-03-01T15:26:23;13.40;;;2.80;;
19406;SDS011;9839;53.364;-1.204;2023-03-01T15:28:50;8.00;;;2.47;;
19406;SDS011;9839;53.364;-1.204;2023-03-01T15:33:50;8.40;;;1.97;;
19406;SDS011;9839;53.364;-1.204;2023-03-01T15:45:22;3.97;;;1.23;;
19406;SDS011;9839;53.364;-1.204;2023-03-01T15:47:50;2.60;;;0.93;;
19406;SDS011;9839;53.364;-1.204;2023-03-01T15:50:22;3.43;;;0.87;;
19406;SDS011;9839;53.364;-1.204;2023-03-01T15:52:52;10.83;;;2.60;;
19406;SDS011;9839;53.364;-1.204;2023-03-01T15:55:19;4.00;;;0.80;;
19406;SDS011;9839;53.364;-1.204;2023-03-01T15:57:47;3.17;;;1.13;;
19406;SDS011;9839;53.364;-1.204;2023-03-01T16:00:13;5.30;;;1.17;;
19406;SDS011;9839;53.364;-1.204;2023-03-01T16:02:40;4.03;;;0.87;;
19406;SDS011;9839;53.364;-1.204;2023-03-01T16:05:18;7.47;;;1.00;;
19406;SDS011;9839;53.364;-1.204;2023-03-01T16:07:45;7.77;;;1.00;;
19406;SDS011;9839;53.364;-1.204;2023-03-01T16:10:11;5.03;;;1.10;;
19406;SDS011;9839;53.364;-1.204;2023-03-01T16:12:37;5.27;;;1.50;;
19406;SDS011;9839;53.364;-1.204;2023-03-01T16:15:04;4.67;;;1.40;;
19406;SDS011;9839;53.364;-1.204;2023-03-01T16:17:32;7.63;;;1.73;;
19406;SDS011;9839;53.364;-1.204;2023-03-01T16:19:58;5.20;;;1.03;;
19406;SDS011;9839;53.364;-1.204;2023-03-01T16:22:23;6.60;;;1.40;;
19406;SDS011;9839;53.364;-1.204;2023-03-01T16:24:50;7.07;;;1.10;;
19406;SDS011;9839;53.364;-1.204;2023-03-01T16:27:15;2.53;;;0.60;;
19406;SDS011;9839;53.364;-1.204;2023-03-01T16:29:41;6.73;;;0.77;;
19406;SDS011;9839;53.364;-1.204;2023-03-01T16:32:06;5.17;;;0.90;;
19406;SDS011;9839;53.364;-1.204;2023-03-01T16:34:32;4.77;;;1.30;;
19406;SDS011;9839;53.364;-1.204;2023-03-01T16:36:57;6.97;;;1.07;;
19406;SDS011;9839;53.364;-1.204;2023-03-01T16:39:23;5.83;;;1.63;;
19406;SDS011;9839;53.364;-1.204;2023-03-01T16:41:48;4.63;;;0.77;;
19406;SDS011;9839;53.364;-1.204;2023-03-01T16:44:14;4.27;;;1.03;;
19406;SDS011;9839;53.364;-1.204;2023-03-01T16:46:40;5.53;;;0.93;;
19406;SDS011;9839;53.364;-1.204;2023-03-01T16:49:06;1.97;;;0.70;;
19406;SDS011;9839;53.364;-1.204;2023-03-01T16:51:32;3.07;;;0.97;;
19406;SDS011;9839;53.364;-1.204;2023-03-01T16:53:59;5.13;;;1.30;;
19406;SDS011;9839;53.364;-1.204;2023-03-01T16:56:25;4.40;;;0.80;;
19406;SDS011;9839;53.364;-1.204;2023-03-01T16:58:50;5.20;;;1.17;;
19406;SDS011;9839;53.364;-1.204;2023-03-01T17:01:17;4.57;;;1.10;;
19406;SDS011;9839;53.364;-1.204;2023-03-01T17:03:44;5.70;;;1.03;;
19406;SDS011;9839;53.364;-1.204;2023-03-01T17:06:12;7.47;;;1.80;;